Список аэропортов
Фактическая погода:

19 августа, 04:00
Температура: +10°C (+9.2*)
Ветер: юго-восточный 2 м/с
Давление: *769 мм
Без существ. явл.
Время (МСК)Темп. СВетерВлажностьДавлениеОблачностьОсадки
02:00+6СВ, 1 м/с100%1027 гПас прояснениями
03:00+6СВ, 1 м/с100%1027 гПас прояснениями
04:00+6СВ, 1 м/с100%1027 гПас прояснениями
05:00+8В, 1 м/с97%1027 гПаясно
06:00+11В, 1 м/с90%1026 гПаясно
07:00+15СВ, 1 м/с72%1026 гПаясно
08:00+19В, 2 м/с58%1025 гПаясно
09:00+21В, 3 м/с47%1025 гПаясно
10:00+22В, 3 м/с44%1025 гПамалооблачно
11:00+22В, 3 м/с44%1024 гПаоблачно
12:00+23В, 3 м/с43%1023 гПамалооблачно
13:00+23В, 3 м/с43%1023 гПаоблачно
14:00+23В, 3 м/с45%1022 гПаоблачно
15:00+22В, 3 м/с48%1022 гПас прояснениями
16:00+21В, 3 м/с53%1021 гПас прояснениями
17:00+20В, 3 м/с56%1021 гПаоблачно
18:00+18СВ, 2 м/с61%1021 гПаоблачно
19:00+18СВ, 2 м/с65%1020 гПаоблачно
20:00+17В, 2 м/с68%1020 гПаоблачносл. дождь
21:00+15В, 2 м/с95%1020 гПаоблачнодождь
22:00+14СВ, 2 м/с97%1020 гПаоблачносл. дождь
23:00+14СВ, 2 м/с97%1019 гПаоблачносл. дождь
20 августа
00:00+13В, 2 м/с97%1019 гПаоблачнодождь
01:00+13В, 2 м/с98%1019 гПаоблачнодождь
02:00+14В, 2 м/с99%1019 гПаоблачнодождь
03:00+14В, 2 м/с99%1019 гПаоблачно
04:00+14В, 2 м/с99%1019 гПаоблачно
05:00+14В, 2 м/с98%1019 гПаоблачно
06:00+14В, 2 м/с98%1019 гПаоблачно
07:00+15В, 2 м/с98%1019 гПаоблачно
08:00+15В, 2 м/с98%1019 гПаоблачно
09:00+16В, 2 м/с97%1019 гПаоблачно
10:00+17В, 2 м/с96%1019 гПаоблачно
11:00+18В, 2 м/с91%1018 гПас прояснениями
12:00+22В, 1 м/с69%1018 гПамалооблачно
13:00+24В, 1 м/с64%1018 гПамалооблачно
14:00+24В, 3 м/с63%1018 гПамалооблачно
15:00+23В, 3 м/с70%1018 гПас прояснениями
16:00+21В, 3 м/с77%1018 гПаоблачно
17:00+20ЮВ, 3 м/с82%1018 гПаоблачно
18:00+19ЮВ, 2 м/с86%1019 гПаоблачно
19:00+18ЮВ, 1 м/с89%1019 гПаоблачно
20:00+18В, 1 м/с92%1018 гПаоблачно
21:00+17В, 1 м/с95%1018 гПаоблачно
22:00+17В, 1 м/с96%1018 гПаоблачно
23:00+17В, 1 м/с96%1018 гПаоблачно
21 августа
00:00+17В, 1 м/с94%1018 гПаоблачно
01:00+16В, 1 м/с92%1018 гПаоблачно
02:00+16В, 1 м/с92%1018 гПаоблачно